ZBAA/PEK METAR and TAF weather

Enter ICAO airport designator
Station Type Date Time Source
ZBAA METAR 2021/01/20 22:00 UTC NOAA

ZBAA 202200Z 33001MPS 9000 NSC M06/M10 Q1022 NOSIG


Station Type Date Time Source
ZBAA Decoded METAR 2021/01/20 22:00 UTC NOAA

Beijing, China (ZBAA) 39-56N 116-17E 55M
Jan 20, 2021 - 05:00 PM EST / 2021.01.20 2200 UTC
Wind: from the NNW (330 degrees) at 2 MPH (2 KT):0
Visibility: 5 mile(s):0
Temperature: 21 F (-6 C)
Dew Point: 14 F (-10 C)
Relative Humidity: 73%
Pressure (altimeter): 30.18 in. Hg (1022 hPa)
ob: ZBAA 202200Z 33001MPS 9000 NSC M06/M10 Q1022 NOSIG
cycle: 22

Station Type Date Time Source
ZBAA TAF 2021/01/20 18:03 UTC NOAA

TAF TAF ZBAA 201502Z 2018/2118 32004MPS 6000 NSC TX06/2107Z TNM10/2021Z

Example: see airport list